MUCM/CMW METAR and TAF weather

Enter ICAO airport designator
Station Type Date Time Source
MUCM METAR 2020/01/24 08:52 UTC NOAA

MUCM 240852Z 29005KT 9000 NSC 16/16 Q1014


Station Type Date Time Source
MUCM Decoded METAR 2020/01/24 08:52 UTC NOAA

Camaguey Aeropuerto, Cuba (MUCM) 21-25N 077-51W 118M
Jan 24, 2020 - 03:52 AM EST / 2020.01.24 0852 UTC
Wind: from the WNW (290 degrees) at 6 MPH (5 KT):0
Visibility: 5 mile(s):0
Temperature: 60 F (16 C)
Dew Point: 60 F (16 C)
Relative Humidity: 100%
Pressure (altimeter): 29.94 in. Hg (1014 hPa)
ob: MUCM 240852Z 29005KT 9000 NSC 16/16 Q1014
cycle: 9

Station Type Date Time Source
MUCM TAF 2020/01/24 06:03 UTC NOAA

TAF MUCM 240500Z 2406/2506 VRB03KT 9000 SCT020

Example: see airport list